Time,TemperatureF,DewpointF,PressureIn,WindDirection,WindDirectionDegrees,WindSpeedMPH,WindSpeedGustMPH,Humidity,HourlyPrecipIn,Conditions,Clouds,dailyrainin,SoftwareType,DateUTC
2013-06-08 00:13:00,52.2,50.0,29.98,NNW,346,0.0,0.0,93,0.00,,,0.00,weatherlink.com 1.10,2013-06-08 04:13:00,
2013-06-08 00:28:00,52.6,51.0,29.98,NNW,346,0.0,0.0,94,0.00,,,0.00,weatherlink.com 1.10,2013-06-08 04:28:00,
2013-06-08 00:43:00,52.8,51.0,29.98,NNW,346,0.0,0.0,94,0.00,,,0.00,weatherlink.com 1.10,2013-06-08 04:43:00,
2013-06-08 00:58:00,52.9,51.0,29.99,NNW,346,0.0,0.0,94,0.00,,,0.00,weatherlink.com 1.10,2013-06-08 04:58:00,
2013-06-08 01:13:00,53.0,51.0,29.98,NNW,346,0.0,0.0,94,0.00,,,0.00,weatherlink.com 1.10,2013-06-08 05:13:00,
2013-06-08 01:28:00,53.2,52.0,29.99,NNW,346,0.0,0.0,94,0.00,,,0.00,weatherlink.com 1.10,2013-06-08 05:28:00,
2013-06-08 01:43:00,53.3,51.0,29.98,NNW,346,0.0,0.0,93,0.00,,,0.00,weatherlink.com 1.10,2013-06-08 05:43:00,
2013-06-08 01:58:00,53.4,52.0,29.99,NNW,346,0.0,0.0,93,0.00,,,0.00,weatherlink.com 1.10,2013-06-08 05:58:00,
2013-06-08 02:13:00,53.5,52.0,29.98,NNW,346,0.0,0.0,93,0.00,,,0.00,weatherlink.com 1.10,2013-06-08 06:13:00,
2013-06-08 02:28:00,53.4,52.0,29.98,NNW,346,0.0,0.0,93,0.00,,,0.00,weatherlink.com 1.10,2013-06-08 06:28:00,
2013-06-08 02:43:00,53.3,51.0,29.98,NNW,346,0.0,0.0,93,0.00,,,0.00,weatherlink.com 1.10,2013-06-08 06:43:00,
2013-06-08 02:58:00,53.1,51.0,29.98,NNW,346,0.0,0.0,93,0.00,,,0.00,weatherlink.com 1.10,2013-06-08 06:58:00,
2013-06-08 03:13:00,52.7,51.0,29.98,NNW,346,0.0,0.0,93,0.00,,,0.00,weatherlink.com 1.10,2013-06-08 07:13:00,
2013-06-08 03:28:00,52.3,50.0,29.98,NNW,346,0.0,0.0,93,0.00,,,0.00,weatherlink.com 1.10,2013-06-08 07:28:00,
2013-06-08 03:43:00,52.4,51.0,29.99,NNW,346,0.0,0.0,94,0.00,,,0.00,weatherlink.com 1.10,2013-06-08 07:43:00,
2013-06-08 03:58:00,52.6,51.0,29.99,NNW,346,0.0,0.0,94,0.00,,,0.00,weatherlink.com 1.10,2013-06-08 07:58:00,
2013-06-08 04:13:00,52.7,51.0,29.98,NNW,346,0.0,0.0,94,0.00,,,0.00,weatherlink.com 1.10,2013-06-08 08:13:00,
2013-06-08 04:28:00,52.8,51.0,29.99,NNW,346,0.0,0.0,94,0.00,,,0.00,weatherlink.com 1.10,2013-06-08 08:28:00,
2013-06-08 04:43:00,52.9,51.0,29.99,NNW,346,0.0,0.0,94,0.00,,,0.00,weatherlink.com 1.10,2013-06-08 08:43:00,
2013-06-08 04:58:00,53.0,51.0,29.99,NNW,346,0.0,0.0,94,0.00,,,0.00,weatherlink.com 1.10,2013-06-08 08:58:00,
2013-06-08 05:13:00,53.1,52.0,29.99,NNW,346,0.0,0.0,94,0.00,,,0.00,weatherlink.com 1.10,2013-06-08 09:13:00,
2013-06-08 05:28:00,53.2,52.0,30.00,NNW,346,0.0,1.0,94,0.00,,,0.00,weatherlink.com 1.10,2013-06-08 09:28:00,
2013-06-08 05:43:00,53.1,52.0,30.00,NNW,346,0.0,1.0,94,0.00,,,0.00,weatherlink.com 1.10,2013-06-08 09:43:00,
2013-06-08 05:58:00,52.8,51.0,30.01,NNW,346,0.0,0.0,94,0.00,,,0.00,weatherlink.com 1.10,2013-06-08 09:58:00,
2013-06-08 06:13:00,52.7,51.0,30.01,NNW,346,0.0,0.0,94,0.00,,,0.00,weatherlink.com 1.10,2013-06-08 10:13:00,
2013-06-08 06:28:00,52.6,51.0,30.02,NNW,346,0.0,0.0,93,0.00,,,0.00,weatherlink.com 1.10,2013-06-08 10:28:00,
2013-06-08 06:44:00,52.3,50.0,30.02,NNW,346,0.0,1.0,93,0.00,,,0.00,weatherlink.com 1.10,2013-06-08 10:44:00,
2013-06-08 06:58:00,52.1,50.0,30.03,NNW,346,0.0,0.0,93,0.00,,,0.00,weatherlink.com 1.10,2013-06-08 10:58:00,
2013-06-08 07:13:00,52.0,50.0,30.03,NNW,346,0.0,0.0,93,0.00,,,0.00,weatherlink.com 1.10,2013-06-08 11:13:00,
2013-06-08 07:28:00,52.1,51.0,30.03,NNW,346,0.0,0.0,94,0.00,,,0.00,weatherlink.com 1.10,2013-06-08 11:28:00,
2013-06-08 07:43:00,52.7,51.0,30.03,NNW,346,0.0,0.0,95,0.00,,,0.00,weatherlink.com 1.10,2013-06-08 11:43:00,
2013-06-08 07:58:00,53.7,52.0,30.04,NNW,346,0.0,1.0,94,0.00,,,0.00,weatherlink.com 1.10,2013-06-08 11:58:00,
2013-06-08 08:13:00,54.4,53.0,30.04,NNW,332,0.0,2.0,93,0.00,,,0.00,weatherlink.com 1.10,2013-06-08 12:13:00,
2013-06-08 08:28:00,55.5,52.0,30.05,NNE,19,0.0,2.0,89,0.00,,,0.00,weatherlink.com 1.10,2013-06-08 12:28:00,
2013-06-08 08:43:00,57.1,53.0,30.05,NE,38,1.0,1.0,86,0.00,,,0.00,weatherlink.com 1.10,2013-06-08 12:43:00,
2013-06-08 08:58:00,59.7,53.0,30.05,ESE,106,1.0,4.0,78,0.00,,,0.00,weatherlink.com 1.10,2013-06-08 12:58:00,
2013-06-08 09:13:00,60.3,53.0,30.06,North,5,0.0,3.0,77,0.00,,,0.00,weatherlink.com 1.10,2013-06-08 13:13:00,
2013-06-08 09:28:00,61.5,53.0,30.06,East,84,0.0,2.0,74,0.00,,,0.00,weatherlink.com 1.10,2013-06-08 13:28:00,
2013-06-08 09:43:00,61.2,52.0,30.06,East,84,0.0,1.0,72,0.00,,,0.00,weatherlink.com 1.10,2013-06-08 13:43:00,
2013-06-08 09:58:00,61.1,51.0,30.07,East,84,0.0,2.0,70,0.00,,,0.00,weatherlink.com 1.10,2013-06-08 13:58:00,
2013-06-08 10:13:00,61.2,53.0,30.07,East,84,1.0,2.0,75,0.00,,,0.00,weatherlink.com 1.10,2013-06-08 14:13:00,
2013-06-08 10:29:00,61.4,53.0,30.07,East,84,0.0,1.0,73,0.00,,,0.00,weatherlink.com 1.10,2013-06-08 14:29:00,
2013-06-08 10:44:00,62.0,53.0,30.07,East,84,1.0,2.0,72,0.00,,,0.00,weatherlink.com 1.10,2013-06-08 14:44:00,
2013-06-08 10:59:00,63.2,53.0,30.06,East,99,0.0,3.0,70,0.00,,,0.00,weatherlink.com 1.10,2013-06-08 14:59:00,
2013-06-08 11:14:00,63.2,52.0,30.06,NW,317,2.0,3.0,68,0.00,,,0.00,weatherlink.com 1.10,2013-06-08 15:14:00,
2013-06-08 11:29:00,64.8,54.0,30.07,ENE,65,4.0,5.0,67,0.00,,,0.00,weatherlink.com 1.10,2013-06-08 15:29:00,
2013-06-08 11:44:00,64.3,54.0,30.07,SE,133,0.0,4.0,69,0.00,,,0.00,weatherlink.com 1.10,2013-06-08 15:44:00,
2013-06-08 11:59:00,63.9,53.0,30.08,ESE,116,2.0,3.0,67,0.00,,,0.00,weatherlink.com 1.10,2013-06-08 15:59:00,
2013-06-08 12:14:00,64.1,53.0,30.08,NW,313,1.0,5.0,67,0.00,,,0.00,weatherlink.com 1.10,2013-06-08 16:14:00,
2013-06-08 12:29:00,64.4,53.0,30.08,SSE,157,1.0,4.0,66,0.00,,,0.00,weatherlink.com 1.10,2013-06-08 16:29:00,
2013-06-08 12:44:00,64.5,53.0,30.08,West,260,2.0,3.0,67,0.00,,,0.00,weatherlink.com 1.10,2013-06-08 16:44:00,
2013-06-08 12:59:00,66.3,54.0,30.06,ESE,104,1.0,8.0,64,0.00,,,0.00,weatherlink.com 1.10,2013-06-08 16:59:00,
2013-06-08 13:14:00,66.7,53.0,30.06,ESE,115,1.0,3.0,61,0.00,,,0.00,weatherlink.com 1.10,2013-06-08 17:14:00,
2013-06-08 13:29:00,66.6,54.0,30.05,WSW,244,0.0,1.0,64,0.00,,,0.00,weatherlink.com 1.10,2013-06-08 17:29:00,
2013-06-08 13:44:00,67.9,55.0,30.05,NNE,24,1.0,6.0,64,0.00,,,0.00,weatherlink.com 1.10,2013-06-08 17:44:00,
2013-06-08 13:59:00,67.8,55.0,30.05,ESE,116,0.0,4.0,63,0.00,,,0.00,weatherlink.com 1.10,2013-06-08 17:59:00,
2013-06-08 14:14:00,68.1,54.0,30.05,NE,34,2.0,3.0,62,0.00,,,0.00,weatherlink.com 1.10,2013-06-08 18:14:00,
2013-06-08 14:29:00,69.2,53.0,30.05,North,360,0.0,3.0,57,0.00,,,0.00,weatherlink.com 1.10,2013-06-08 18:29:00,
2013-06-08 14:44:00,69.0,55.0,30.05,NNW,346,0.0,2.0,62,0.00,,,0.00,weatherlink.com 1.10,2013-06-08 18:44:00,
2013-06-08 14:59:00,68.6,54.0,30.05,NNW,346,0.0,2.0,61,0.00,,,0.00,weatherlink.com 1.10,2013-06-08 18:59:00,
2013-06-08 15:14:00,69.9,54.0,30.05,NNE,32,0.0,3.0,58,0.00,,,0.00,weatherlink.com 1.10,2013-06-08 19:14:00,
2013-06-08 15:29:00,69.7,55.0,30.06,East,100,1.0,3.0,59,0.00,,,0.00,weatherlink.com 1.10,2013-06-08 19:29:00,
2013-06-08 15:44:00,69.5,56.0,30.05,SE,132,1.0,3.0,62,0.00,,,0.00,weatherlink.com 1.10,2013-06-08 19:44:00,
2013-06-08 15:59:00,71.3,55.0,30.05,WNW,289,0.0,3.0,56,0.00,,,0.00,weatherlink.com 1.10,2013-06-08 19:59:00,
2013-06-08 16:14:00,71.8,54.0,30.05,NW,306,1.0,4.0,53,0.00,,,0.00,weatherlink.com 1.10,2013-06-08 20:14:00,
2013-06-08 16:29:00,71.8,54.0,30.05,WSW,254,2.0,3.0,53,0.00,,,0.00,weatherlink.com 1.10,2013-06-08 20:29:00,
2013-06-08 16:44:00,71.0,53.0,30.05,West,281,1.0,2.0,54,0.00,,,0.00,weatherlink.com 1.10,2013-06-08 20:44:00,
2013-06-08 16:59:00,71.6,54.0,30.05,West,279,0.0,2.0,55,0.00,,,0.00,weatherlink.com 1.10,2013-06-08 20:59:00,
2013-06-08 17:14:00,72.0,54.0,30.05,West,279,1.0,3.0,54,0.00,,,0.00,weatherlink.com 1.10,2013-06-08 21:14:00,
2013-06-08 17:29:00,71.8,55.0,30.05,West,277,0.0,2.0,55,0.00,,,0.00,weatherlink.com 1.10,2013-06-08 21:29:00,
2013-06-08 17:44:00,71.6,53.0,30.05,ESE,113,1.0,3.0,53,0.00,,,0.00,weatherlink.com 1.10,2013-06-08 21:44:00,
2013-06-08 17:59:00,71.2,56.0,30.06,East,92,1.0,2.0,60,0.00,,,0.00,weatherlink.com 1.10,2013-06-08 21:59:00,
2013-06-08 18:14:00,71.6,54.0,30.06,ESE,120,2.0,3.0,55,0.00,,,0.00,weatherlink.com 1.10,2013-06-08 22:14:00,
2013-06-08 18:29:00,71.8,54.0,30.06,ESE,120,1.0,2.0,54,0.00,,,0.00,weatherlink.com 1.10,2013-06-08 22:29:00,
2013-06-08 18:44:00,71.8,53.0,30.06,SSE,153,2.0,3.0,52,0.00,,,0.00,weatherlink.com 1.10,2013-06-08 22:44:00,
2013-06-08 18:59:00,71.5,55.0,30.07,SSE,153,0.0,2.0,56,0.00,,,0.00,weatherlink.com 1.10,2013-06-08 22:59:00,
2013-06-08 19:14:00,70.9,56.0,30.07,SSE,153,0.0,1.0,60,0.00,,,0.00,weatherlink.com 1.10,2013-06-08 23:14:00,
2013-06-08 19:29:00,69.8,57.0,30.07,SSE,153,0.0,0.0,63,0.00,,,0.00,weatherlink.com 1.10,2013-06-08 23:29:00,
2013-06-08 19:44:00,68.4,57.0,30.07,SSE,153,0.0,0.0,67,0.00,,,0.00,weatherlink.com 1.10,2013-06-08 23:44:00,
2013-06-08 19:59:00,67.5,58.0,30.07,SSE,153,0.0,1.0,71,0.00,,,0.00,weatherlink.com 1.10,2013-06-08 23:59:00,
2013-06-08 20:14:00,66.6,56.0,30.07,SSE,153,0.0,0.0,69,0.00,,,0.00,weatherlink.com 1.10,2013-06-09 00:14:00,
2013-06-08 20:29:00,66.2,56.0,30.08,SSE,153,0.0,0.0,69,0.00,,,0.00,weatherlink.com 1.10,2013-06-09 00:29:00,
2013-06-08 20:44:00,65.8,56.0,30.08,SSE,153,0.0,1.0,70,0.00,,,0.00,weatherlink.com 1.10,2013-06-09 00:44:00,
2013-06-08 20:59:00,65.2,56.0,30.08,SSE,153,0.0,1.0,73,0.00,,,0.00,weatherlink.com 1.10,2013-06-09 00:59:00,
2013-06-08 21:14:00,64.8,56.0,30.09,SSE,153,0.0,0.0,72,0.00,,,0.00,weatherlink.com 1.10,2013-06-09 01:14:00,
2013-06-08 21:29:00,64.3,55.0,30.09,SSE,153,0.0,0.0,73,0.00,,,0.00,weatherlink.com 1.10,2013-06-09 01:29:00,
2013-06-08 21:44:00,63.3,55.0,30.09,SSE,153,0.0,1.0,75,0.00,,,0.00,weatherlink.com 1.10,2013-06-09 01:44:00,
2013-06-08 21:59:00,62.4,55.0,30.10,SSE,153,0.0,0.0,77,0.00,,,0.00,weatherlink.com 1.10,2013-06-09 01:59:00,
2013-06-08 22:14:00,61.6,55.0,30.10,SSE,153,0.0,0.0,78,0.00,,,0.00,weatherlink.com 1.10,2013-06-09 02:14:00,
2013-06-08 22:29:00,60.8,54.0,30.11,SSE,153,0.0,0.0,79,0.00,,,0.00,weatherlink.com 1.10,2013-06-09 02:29:00,
2013-06-08 22:45:00,60.1,54.0,30.12,SSE,153,1.0,1.0,80,0.00,,,0.00,weatherlink.com 1.10,2013-06-09 02:45:00,
2013-06-08 23:00:00,59.7,54.0,30.12,SSE,153,1.0,2.0,82,0.00,,,0.00,weatherlink.com 1.10,2013-06-09 03:00:00,
2013-06-08 23:15:00,59.4,54.0,30.12,SSE,153,0.0,1.0,83,0.00,,,0.00,weatherlink.com 1.10,2013-06-09 03:15:00,
2013-06-08 23:30:00,59.0,54.0,30.12,SSE,153,0.0,0.0,84,0.00,,,0.00,weatherlink.com 1.10,2013-06-09 03:30:00,
2013-06-08 23:45:00,58.5,54.0,30.12,SSE,153,0.0,0.0,85,0.00,,,0.00,weatherlink.com 1.10,2013-06-09 03:45:00,